Time;durP1;ratioP1;P1;durP2;ratioP2;P2;SDS_P1;SDS_P2;PMS_P1;PMS_P2;Temp;Humidity;BMP_temperature;BMP_pressure;BME280_temperature;BME280_humidity;BME280_pressure;Samples;Min_cycle;Max_cycle;Signal;HPM_P1;HPM_P2
2021/03/11 00:00:02;;;;;;;36.22;23.08;;;7.90;99.90;;;;;;5055405;28;20051;-77
2021/03/11 00:02:28;;;;;;;33.22;21.52;;;8.00;99.90;;;;;;5055059;28;20131;-77
2021/03/11 00:04:55;;;;;;;32.00;20.92;;;8.00;99.90;;;;;;5055282;28;20053;-78
2021/03/11 00:07:21;;;;;;;31.65;20.05;;;8.10;99.90;;;;;;5055539;28;20055;-77
2021/03/11 00:09:51;;;;;;;31.00;20.60;;;8.20;99.90;;;;;;5056937;28;20132;-77
2021/03/11 00:12:17;;;;;;;33.05;19.70;;;8.20;99.90;;;;;;5057833;28;20053;-78
2021/03/11 00:14:44;;;;;;;29.83;19.17;;;8.20;99.90;;;;;;5057059;28;20132;-77
2021/03/11 00:17:11;;;;;;;26.73;17.73;;;8.20;99.90;;;;;;5058206;28;20532;-78
2021/03/11 00:19:37;;;;;;;28.90;17.83;;;8.20;99.90;;;;;;5057467;28;20067;-78
2021/03/11 00:22:05;;;;;;;32.92;18.23;;;8.20;99.90;;;;;;5057971;28;20457;-78
2021/03/11 00:24:31;;;;;;;27.52;17.27;;;8.30;99.90;;;;;;5058098;28;20159;-78
2021/03/11 00:26:58;;;;;;;25.52;16.52;;;8.30;99.90;;;;;;5057718;28;20123;-78
2021/03/11 00:29:24;;;;;;;31.05;17.25;;;8.30;99.90;;;;;;5059167;28;20116;-78
2021/03/11 00:31:51;;;;;;;26.83;16.92;;;8.40;99.90;;;;;;5058417;28;20699;-78
2021/03/11 00:34:18;;;;;;;25.38;16.35;;;8.40;99.90;;;;;;5060038;28;20127;-79
2021/03/11 00:36:44;;;;;;;26.05;17.00;;;8.40;99.90;;;;;;5057545;28;20059;-78
2021/03/11 00:39:11;;;;;;;25.55;16.13;;;8.40;99.90;;;;;;5058133;28;20099;-78
2021/03/11 00:41:38;;;;;;;23.75;16.27;;;8.50;99.90;;;;;;5057743;28;20124;-78
2021/03/11 00:44:05;;;;;;;29.50;17.63;;;8.50;99.90;;;;;;5056846;28;20079;-77
2021/03/11 00:46:31;;;;;;;26.08;16.73;;;8.50;99.90;;;;;;5056259;28;20410;-76
2021/03/11 00:48:57;;;;;;;29.08;17.42;;;8.50;99.90;;;;;;5057414;28;20049;-77
2021/03/11 00:51:24;;;;;;;24.27;16.42;;;8.50;99.90;;;;;;5056536;28;20041;-78
2021/03/11 00:53:51;;;;;;;27.00;16.95;;;8.50;99.90;;;;;;5055908;28;20052;-78
2021/03/11 00:56:17;;;;;;;25.10;16.77;;;8.50;99.90;;;;;;5056012;28;20128;-78
2021/03/11 00:58:44;;;;;;;29.02;17.10;;;8.50;99.90;;;;;;5054899;28;20135;-76
2021/03/11 01:01:10;;;;;;;25.63;16.90;;;8.50;99.90;;;;;;5054425;28;20128;-78
2021/03/11 01:03:36;;;;;;;27.52;16.15;;;8.60;99.90;;;;;;5055050;28;20075;-78
2021/03/11 01:06:03;;;;;;;27.33;16.25;;;8.50;99.90;;;;;;5054183;28;20049;-78
2021/03/11 01:08:30;;;;;;;27.52;17.05;;;8.60;99.90;;;;;;5054888;28;20052;-78
2021/03/11 01:10:56;;;;;;;26.85;16.42;;;8.70;99.90;;;;;;5054598;28;20525;-78
2021/03/11 01:13:23;;;;;;;23.65;16.23;;;8.70;99.90;;;;;;5055572;28;20052;-77
2021/03/11 01:15:50;;;;;;;23.20;14.98;;;8.70;99.90;;;;;;5058256;28;20085;-79
2021/03/11 01:18:16;;;;;;;22.27;14.90;;;8.70;99.90;;;;;;5054751;28;20148;-78
2021/03/11 01:20:43;;;;;;;22.85;15.73;;;8.70;99.90;;;;;;5053660;28;20109;-78
2021/03/11 01:23:10;;;;;;;20.98;14.18;;;8.70;99.90;;;;;;5056359;28;20060;-79
2021/03/11 01:25:37;;;;;;;21.10;12.77;;;8.70;99.90;;;;;;5055491;28;20127;-79
2021/03/11 01:28:03;;;;;;;19.50;14.25;;;8.70;99.90;;;;;;5055762;28;20136;-77
2021/03/11 01:30:30;;;;;;;20.13;14.25;;;8.70;99.90;;;;;;5054168;28;20132;-77
2021/03/11 01:32:56;;;;;;;20.33;13.10;;;8.80;99.90;;;;;;5054043;28;20048;-76
2021/03/11 01:35:23;;;;;;;20.02;12.55;;;8.70;99.90;;;;;;5054059;28;20067;-77
2021/03/11 01:37:49;;;;;;;15.90;11.02;;;8.70;99.90;;;;;;5053872;28;20055;-77
2021/03/11 01:40:16;;;;;;;16.80;11.95;;;8.70;99.90;;;;;;5053859;28;20087;-78
2021/03/11 01:42:43;;;;;;;15.85;10.10;;;8.70;99.90;;;;;;5053937;28;20045;-77
2021/03/11 01:45:10;;;;;;;12.77;9.20;;;8.70;99.90;;;;;;5054261;28;20057;-77
2021/03/11 01:47:37;;;;;;;13.15;9.13;;;8.70;99.90;;;;;;5054078;28;20048;-76
2021/03/11 01:50:04;;;;;;;13.75;8.80;;;8.70;99.90;;;;;;5054297;28;20052;-77
2021/03/11 01:52:32;;;;;;;11.27;7.43;;;8.70;99.90;;;;;;5054646;28;20444;-77
2021/03/11 01:54:59;;;;;;;11.27;7.75;;;8.70;99.90;;;;;;5053533;28;20136;-76
2021/03/11 01:57:26;;;;;;;11.32;6.88;;;8.80;99.90;;;;;;5053474;28;20057;-76
2021/03/11 01:59:54;;;;;;;8.38;6.22;;;8.80;99.90;;;;;;5053527;28;20214;-78
2021/03/11 02:02:20;;;;;;;10.30;6.82;;;8.80;99.90;;;;;;5053525;28;20491;-77
2021/03/11 02:04:46;;;;;;;8.65;6.10;;;8.80;99.90;;;;;;5053452;28;20091;-78
2021/03/11 02:07:13;;;;;;;9.50;6.70;;;8.80;99.90;;;;;;5052916;28;20102;-77
2021/03/11 02:09:39;;;;;;;7.57;5.93;;;8.80;99.90;;;;;;5053740;28;20061;-77
2021/03/11 02:12:13;;;;;;;8.70;5.80;;;8.90;99.90;;;;;;5053511;28;20072;-78
2021/03/11 02:14:53;;;;;;;7.55;5.53;;;8.80;99.90;;;;;;5053069;28;20051;-77
2021/03/11 02:17:24;;;;;;;8.98;5.53;;;8.80;99.90;;;;;;5052784;28;20049;-77
2021/03/11 02:20:21;;;;;;;7.47;5.75;;;8.90;99.90;;;;;;5053443;28;20059;-77
2021/03/11 02:23:04;;;;;;;7.95;5.55;;;8.90;99.90;;;;;;5031162;28;20084;-77
2021/03/11 02:25:38;;;;;;;8.15;5.60;;;8.90;99.90;;;;;;5053542;28;20137;-77
2021/03/11 02:28:11;;;;;;;9.30;5.85;;;8.90;99.90;;;;;;5053362;28;20398;-77
2021/03/11 02:30:40;;;;;;;8.57;5.80;;;8.90;99.90;;;;;;5053614;28;20152;-79
2021/03/11 02:33:09;;;;;;;7.53;5.32;;;8.90;99.90;;;;;;5054075;28;20491;-78
2021/03/11 02:35:37;;;;;;;8.52;5.70;;;8.90;99.90;;;;;;5054464;28;20057;-78
2021/03/11 02:38:05;;;;;;;10.55;5.40;;;8.90;99.90;;;;;;5054803;28;20128;-78
2021/03/11 02:40:34;;;;;;;7.90;5.75;;;8.90;99.90;;;;;;5054074;28;20136;-76
2021/03/11 02:43:04;;;;;;;7.55;5.55;;;8.90;99.90;;;;;;5054036;28;20518;-78
2021/03/11 02:45:33;;;;;;;7.70;5.50;;;8.90;99.90;;;;;;5053442;28;20045;-78
2021/03/11 02:48:04;;;;;;;7.82;5.38;;;8.90;99.90;;;;;;5054908;28;20136;-79
2021/03/11 02:50:31;;;;;;;7.05;5.43;;;8.90;99.90;;;;;;5054522;28;20049;-78
2021/03/11 02:52:59;;;;;;;8.15;5.70;;;8.90;99.90;;;;;;5054258;28;20127;-79
2021/03/11 02:55:29;;;;;;;7.72;5.50;;;8.90;99.90;;;;;;5054359;28;20469;-78
2021/03/11 02:57:56;;;;;;;7.72;5.70;;;8.90;99.90;;;;;;5053599;28;20148;-78
2021/03/11 03:00:24;;;;;;;7.55;5.32;;;8.90;99.90;;;;;;5053705;28;20144;-78
2021/03/11 03:02:52;;;;;;;7.65;5.78;;;8.90;99.90;;;;;;5052583;28;20049;-78
2021/03/11 03:05:23;;;;;;;7.15;5.53;;;8.90;99.90;;;;;;5052358;28;20102;-78
2021/03/11 03:07:50;;;;;;;7.28;5.53;;;8.90;99.90;;;;;;5052234;28;20049;-78
2021/03/11 03:10:19;;;;;;;7.18;5.63;;;8.80;99.90;;;;;;5052658;28;20046;-77
2021/03/11 03:12:48;;;;;;;8.40;5.57;;;8.80;99.90;;;;;;5052672;28;20426;-77
2021/03/11 03:15:16;;;;;;;7.18;5.57;;;8.80;99.90;;;;;;5052162;28;20075;-77
2021/03/11 03:17:44;;;;;;;8.90;5.53;;;8.80;99.90;;;;;;5052183;28;20052;-77
2021/03/11 03:20:12;;;;;;;8.73;6.03;;;8.80;99.90;;;;;;5051774;28;20053;-77
2021/03/11 03:22:40;;;;;;;6.57;5.07;;;8.80;99.90;;;;;;5052014;28;20049;-76
2021/03/11 03:25:08;;;;;;;7.53;5.88;;;8.80;99.90;;;;;;5052107;28;20053;-77
2021/03/11 03:27:35;;;;;;;7.65;5.43;;;8.80;99.90;;;;;;5052288;28;20143;-79
2021/03/11 03:30:04;;;;;;;7.10;5.70;;;8.90;99.90;;;;;;5053526;28;20135;-77
2021/03/11 03:32:31;;;;;;;10.00;6.55;;;8.90;99.90;;;;;;5055122;28;20124;-79
2021/03/11 03:34:57;;;;;;;8.52;6.20;;;8.80;99.90;;;;;;5053817;28;20360;-78
2021/03/11 03:37:23;;;;;;;7.68;5.70;;;8.80;99.90;;;;;;5054196;28;20084;-78
2021/03/11 03:39:51;;;;;;;9.88;5.90;;;8.80;99.90;;;;;;5053492;28;20049;-79
2021/03/11 03:42:18;;;;;;;8.40;6.22;;;8.70;99.90;;;;;;5052119;28;20124;-77
2021/03/11 03:44:47;;;;;;;8.13;6.00;;;8.70;99.90;;;;;;5054421;28;20053;-79
2021/03/11 03:47:15;;;;;;;7.78;6.32;;;8.70;99.90;;;;;;5052314;28;20494;-78
2021/03/11 03:49:42;;;;;;;9.50;6.30;;;8.70;99.90;;;;;;5053124;28;20404;-80
2021/03/11 03:52:10;;;;;;;8.68;6.60;;;8.70;99.90;;;;;;5053326;28;20098;-79
2021/03/11 03:54:39;;;;;;;7.80;6.22;;;8.70;99.90;;;;;;5052918;28;20059;-77
2021/03/11 03:57:12;;;;;;;8.82;6.50;;;8.70;99.90;;;;;;5053171;28;20090;-79
2021/03/11 03:59:41;;;;;;;10.77;6.88;;;8.70;99.90;;;;;;5054062;28;20153;-79
2021/03/11 04:02:11;;;;;;;9.57;6.53;;;8.70;99.90;;;;;;5053649;28;20128;-79
2021/03/11 04:04:41;;;;;;;8.43;6.40;;;8.70;99.90;;;;;;5054470;28;20049;-80
2021/03/11 04:07:10;;;;;;;9.30;6.30;;;8.70;99.90;;;;;;5054237;28;20056;-79
2021/03/11 04:09:38;;;;;;;8.40;6.20;;;8.70;99.90;;;;;;5051470;28;20471;-78
2021/03/11 04:12:06;;;;;;;8.13;6.22;;;8.80;99.90;;;;;;5051591;28;20167;-78
2021/03/11 04:14:35;;;;;;;9.20;6.63;;;8.80;99.90;;;;;;5053217;28;20132;-79
2021/03/11 04:17:02;;;;;;;8.52;6.13;;;8.80;99.90;;;;;;5052415;28;20135;-76
2021/03/11 04:19:29;;;;;;;9.15;6.75;;;8.80;99.90;;;;;;5051580;28;20586;-76
2021/03/11 04:21:56;;;;;;;8.60;6.15;;;8.90;99.90;;;;;;5051694;28;20055;-78
2021/03/11 04:24:23;;;;;;;8.95;6.63;;;8.80;99.90;;;;;;5051750;28;20113;-79
2021/03/11 04:26:49;;;;;;;9.15;6.63;;;8.90;99.90;;;;;;5051048;28;20136;-79
2021/03/11 04:29:16;;;;;;;11.15;6.32;;;8.90;99.90;;;;;;5051853;28;20136;-79
2021/03/11 04:31:45;;;;;;;9.57;6.30;;;9.00;99.90;;;;;;5051067;28;20131;-78
2021/03/11 04:34:11;;;;;;;10.68;6.20;;;8.90;99.90;;;;;;5051431;28;20131;-78
2021/03/11 04:36:40;;;;;;;8.13;5.65;;;9.00;99.90;;;;;;5050528;28;20048;-77
2021/03/11 04:39:07;;;;;;;7.22;5.28;;;9.00;99.90;;;;;;5051941;28;20132;-77
2021/03/11 04:41:34;;;;;;;7.07;5.60;;;9.00;99.90;;;;;;5051672;28;20080;-79
2021/03/11 04:44:02;;;;;;;7.25;5.40;;;9.00;99.90;;;;;;5052431;28;20191;-79
2021/03/11 04:46:30;;;;;;;7.18;5.43;;;9.00;99.90;;;;;;5095039;22;20498;-80
2021/03/11 04:49:00;;;;;;;7.40;4.82;;;9.00;99.90;;;;;;5093122;28;20099;-80
2021/03/11 04:51:27;;;;;;;8.35;4.95;;;9.00;99.90;;;;;;5101339;28;20068;-79
2021/03/11 04:53:54;;;;;;;6.65;4.93;;;9.00;99.90;;;;;;5100505;28;20147;-79
2021/03/11 04:56:22;;;;;;;6.97;5.15;;;9.10;99.90;;;;;;5093504;28;20145;-79
2021/03/11 04:58:49;;;;;;;7.57;5.82;;;9.10;99.90;;;;;;5080836;28;20049;-79
2021/03/11 05:01:20;;;;;;;7.53;5.28;;;9.10;99.90;;;;;;5080889;28;20076;-80
2021/03/11 05:03:47;;;;;;;6.82;5.25;;;9.10;99.90;;;;;;5080407;28;20172;-79
2021/03/11 05:06:15;;;;;;;6.60;5.18;;;9.10;99.90;;;;;;5079300;28;20060;-78
2021/03/11 05:08:42;;;;;;;6.93;4.75;;;9.10;99.90;;;;;;5079146;28;20090;-79
2021/03/11 05:11:10;;;;;;;7.10;5.20;;;9.10;99.90;;;;;;5080352;28;20075;-79
2021/03/11 05:13:37;;;;;;;7.75;5.65;;;9.10;99.90;;;;;;5079537;28;20549;-79
2021/03/11 05:16:03;;;;;;;6.90;5.22;;;9.10;99.90;;;;;;5079522;28;20653;-79
2021/03/11 05:18:30;;;;;;;7.43;5.20;;;9.20;99.90;;;;;;5080296;28;20136;-80
2021/03/11 05:20:56;;;;;;;7.10;5.07;;;9.20;99.90;;;;;;5079868;28;20099;-78
2021/03/11 05:23:23;;;;;;;6.85;5.38;;;9.20;99.90;;;;;;5078202;28;20080;-79
2021/03/11 05:25:53;;;;;;;6.30;4.97;;;9.20;99.90;;;;;;5077598;28;20044;-78
2021/03/11 05:28:19;;;;;;;6.93;5.00;;;9.20;99.90;;;;;;5080232;28;20052;-79
2021/03/11 05:30:45;;;;;;;8.63;5.13;;;9.20;99.90;;;;;;5080321;28;20083;-78
2021/03/11 05:33:12;;;;;;;7.95;5.20;;;9.20;99.90;;;;;;5079439;28;20600;-78
2021/03/11 05:35:38;;;;;;;7.05;4.97;;;9.30;99.90;;;;;;5078684;28;20080;-75
2021/03/11 05:38:06;;;;;;;7.03;5.30;;;9.30;99.90;;;;;;5079227;28;20153;-78
2021/03/11 05:40:34;;;;;;;7.32;5.25;;;9.40;99.90;;;;;;5080283;28;20111;-79
2021/03/11 05:43:03;;;;;;;7.35;5.45;;;9.40;99.90;;;;;;5078670;28;20086;-78
2021/03/11 05:45:30;;;;;;;7.47;5.75;;;9.40;99.90;;;;;;5080694;28;20052;-79
2021/03/11 05:47:57;;;;;;;9.63;6.55;;;9.40;99.90;;;;;;5080459;28;20091;-78
2021/03/11 05:50:24;;;;;;;9.40;6.43;;;9.40;99.90;;;;;;5079735;28;20053;-78
2021/03/11 05:52:51;;;;;;;10.85;5.97;;;9.40;99.90;;;;;;5079298;28;20072;-78
2021/03/11 05:55:18;;;;;;;8.57;6.00;;;9.40;99.90;;;;;;5079158;28;20080;-79
2021/03/11 05:57:47;;;;;;;10.52;6.40;;;9.40;99.90;;;;;;5079630;28;20048;-78
2021/03/11 06:00:15;;;;;;;9.00;5.85;;;9.50;99.90;;;;;;5080853;28;20529;-80
2021/03/11 06:02:43;;;;;;;8.25;5.82;;;9.50;99.90;;;;;;5079377;28;20087;-79
2021/03/11 06:05:12;;;;;;;8.40;6.10;;;9.50;99.90;;;;;;5080288;28;20053;-79
2021/03/11 06:07:44;;;;;;;8.00;6.25;;;9.60;99.90;;;;;;5080917;28;20499;-77
2021/03/11 06:10:12;;;;;;;8.45;6.25;;;9.60;99.90;;;;;;5080933;28;20048;-79
2021/03/11 06:12:40;;;;;;;8.48;6.43;;;9.70;99.90;;;;;;5079360;28;20048;-79
2021/03/11 06:15:12;;;;;;;8.00;5.72;;;9.70;99.90;;;;;;5081334;28;20135;-79
2021/03/11 06:17:40;;;;;;;8.07;5.90;;;9.90;99.90;;;;;;5078440;28;20143;-78
2021/03/11 06:20:07;;;;;;;8.25;6.05;;;9.90;99.90;;;;;;5079345;28;20048;-79
2021/03/11 06:22:34;;;;;;;7.78;6.18;;;10.00;99.90;;;;;;5080194;28;20418;-80
2021/03/11 06:25:01;;;;;;;8.32;5.57;;;10.00;99.90;;;;;;5081206;28;20510;-80
2021/03/11 06:27:27;;;;;;;7.43;5.65;;;10.10;99.90;;;;;;5081167;28;20109;-79
2021/03/11 06:29:56;;;;;;;7.60;5.80;;;10.10;99.90;;;;;;5080945;28;20127;-80
2021/03/11 06:32:24;;;;;;;8.30;5.95;;;10.10;99.90;;;;;;5083731;28;20060;-81
2021/03/11 06:34:52;;;;;;;6.80;5.47;;;10.20;99.90;;;;;;5082753;28;20107;-79
2021/03/11 06:37:36;;;;;;;8.13;5.55;;;10.30;99.90;;;;;;5078788;28;20053;-79
2021/03/11 06:40:16;;;;;;;6.18;5.15;;;10.30;99.90;;;;;;5081164;28;20075;-79
2021/03/11 06:42:43;;;;;;;7.72;5.90;;;10.30;99.90;;;;;;5081119;28;20460;-79
2021/03/11 06:45:24;;;;;;;6.70;5.22;;;10.30;99.90;;;;;;5083179;28;20153;-79
2021/03/11 06:47:53;;;;;;;8.25;5.03;;;10.30;99.90;;;;;;5085387;28;20059;-81
2021/03/11 06:50:22;;;;;;;6.88;5.53;;;10.40;99.90;;;;;;5084721;28;20067;-80
2021/03/11 06:53:03;;;;;;;6.78;5.30;;;10.40;99.90;;;;;;5085868;28;20048;-81
2021/03/11 06:55:30;;;;;;;6.90;5.05;;;10.40;99.90;;;;;;5082859;28;20045;-81
2021/03/11 06:58:14;;;;;;;8.10;5.50;;;10.40;99.90;;;;;;5082262;28;20156;-80
2021/03/11 07:00:40;;;;;;;5.93;4.53;;;10.40;99.90;;;;;;5080603;28;20136;-80
2021/03/11 07:03:07;;;;;;;5.18;4.10;;;10.40;99.90;;;;;;5081946;28;20049;-80
2021/03/11 07:05:38;;;;;;;6.70;4.70;;;10.40;99.90;;;;;;5082124;28;20053;-78
2021/03/11 07:08:05;;;;;;;6.57;4.90;;;10.40;99.90;;;;;;5084083;28;20071;-80
2021/03/11 07:10:32;;;;;;;6.35;4.63;;;10.40;99.90;;;;;;5083138;28;20082;-79
2021/03/11 07:13:00;;;;;;;7.03;4.50;;;10.50;99.90;;;;;;5082490;28;20109;-79
2021/03/11 07:15:29;;;;;;;5.63;4.38;;;10.60;99.90;;;;;;5082444;28;20045;-80
2021/03/11 07:17:56;;;;;;;6.20;4.65;;;10.60;99.90;;;;;;5083379;28;20111;-79
2021/03/11 07:20:24;;;;;;;11.55;8.48;;;10.70;99.90;;;;;;5086126;28;20052;-80
2021/03/11 07:23:02;;;;;;;5.30;4.38;;;10.70;99.90;;;;;;5085795;28;20110;-79
2021/03/11 07:25:31;;;;;;;6.45;4.35;;;10.80;99.90;;;;;;5085627;28;20059;-81
2021/03/11 07:27:59;;;;;;;7.50;5.88;;;10.80;99.90;;;;;;5087040;28;20044;-80
2021/03/11 07:30:26;;;;;;;6.53;4.50;;;10.80;99.90;;;;;;5086636;28;20504;-80
2021/03/11 07:32:58;;;;;;;12.93;9.38;;;10.80;99.90;;;;;;5085433;28;20043;-80
2021/03/11 07:35:31;;;;;;;6.18;4.38;;;10.80;99.90;;;;;;5085128;28;20068;-81
2021/03/11 07:38:02;;;;;;;7.30;5.47;;;10.80;99.90;;;;;;5085079;28;20060;-80
2021/03/11 07:40:32;;;;;;;7.53;4.80;;;10.90;99.90;;;;;;5085867;28;20045;-81
2021/03/11 07:42:59;;;;;;;6.80;5.40;;;10.90;99.90;;;;;;5081643;28;20044;-79
2021/03/11 07:45:27;;;;;;;7.43;4.63;;;11.00;99.90;;;;;;5075746;28;20135;-79
2021/03/11 07:47:53;;;;;;;6.20;4.72;;;11.00;99.90;;;;;;5079190;28;20202;-80
2021/03/11 07:50:21;;;;;;;6.55;5.10;;;11.10;99.90;;;;;;5081964;28;20112;-80
2021/03/11 07:52:48;;;;;;;7.43;4.95;;;11.10;99.90;;;;;;5081309;28;20041;-80
2021/03/11 07:55:15;;;;;;;8.57;5.18;;;11.30;99.90;;;;;;5079468;28;20425;-80
2021/03/11 07:57:44;;;;;;;8.68;4.47;;;11.40;99.90;;;;;;5079193;28;20086;-79
2021/03/11 08:00:13;;;;;;;6.95;4.70;;;11.50;99.90;;;;;;5082620;28;20049;-80
2021/03/11 08:02:45;;;;;;;6.90;4.78;;;11.50;99.90;;;;;;5080892;28;20048;-80
2021/03/11 08:05:12;;;;;;;7.53;4.95;;;11.60;99.90;;;;;;5082118;28;20076;-80
2021/03/11 08:07:39;;;;;;;5.72;4.40;;;11.60;99.90;;;;;;5079592;28;20076;-81
2021/03/11 08:10:21;;;;;;;6.20;4.32;;;11.70;99.90;;;;;;5080510;28;20516;-81
2021/03/11 08:12:47;;;;;;;7.53;5.00;;;11.70;99.90;;;;;;5085258;28;20083;-80
2021/03/11 08:15:32;;;;;;;7.40;4.78;;;11.80;99.90;;;;;;5089347;28;20070;-81
2021/03/11 08:18:00;;;;;;;8.23;4.85;;;11.80;99.90;;;;;;5084122;28;20300;-81
2021/03/11 08:20:40;;;;;;;9.30;5.05;;;11.80;99.90;;;;;;5084520;28;20076;-81
2021/03/11 08:23:11;;;;;;;8.07;5.18;;;11.80;99.90;;;;;;5086761;28;20104;-82
2021/03/11 08:25:56;;;;;;;7.25;4.80;;;11.60;99.90;;;;;;5085568;28;20096;-81
2021/03/11 08:28:41;;;;;;;7.07;5.15;;;11.50;99.90;;;;;;5088438;28;20102;-83
2021/03/11 08:31:09;;;;;;;9.65;6.15;;;11.50;99.90;;;;;;5090257;28;20106;-82
2021/03/11 08:33:49;;;;;;;7.82;5.63;;;11.40;99.90;;;;;;5089928;28;20051;-82
2021/03/11 08:36:39;;;;;;;6.90;5.32;;;11.30;99.90;;;;;;5085317;28;20343;-82
2021/03/11 08:39:31;;;;;;;7.57;4.85;;;11.30;99.90;;;;;;5085106;28;20079;-82
2021/03/11 08:41:59;;;;;;;9.35;5.72;;;11.20;99.90;;;;;;5085414;28;20052;-82
2021/03/11 08:44:45;;;;;;;7.60;5.00;;;11.20;99.90;;;;;;5085288;28;20082;-81
2021/03/11 08:47:12;;;;;;;7.03;5.07;;;11.20;99.90;;;;;;5085694;28;20067;-80
2021/03/11 08:49:44;;;;;;;6.68;5.10;;;11.20;99.90;;;;;;5084643;28;20072;-81
2021/03/11 08:52:41;;;;;;;7.20;4.70;;;11.20;99.90;;;;;;5085482;28;20318;-80
2021/03/11 08:55:30;;;;;;;7.25;4.47;;;11.10;99.90;;;;;;5084607;28;20099;-80
2021/03/11 08:57:58;;;;;;;7.50;4.95;;;11.10;99.90;;;;;;5086088;28;20076;-81
2021/03/11 09:00:57;;;;;;;6.93;4.75;;;11.10;99.90;;;;;;5085645;28;20048;-81
2021/03/11 09:03:40;;;;;;;6.70;4.80;;;11.10;99.90;;;;;;5084868;28;20049;-82
2021/03/11 09:06:07;;;;;;;;;;;11.10;99.90;;;;;;5083451;28;20136;-81
2021/03/11 09:08:35;;;;;;;6.45;4.55;;;11.10;99.90;;;;;;5084699;28;19974;-81
2021/03/11 09:11:09;;;;;;;9.25;6.40;;;11.00;99.90;;;;;;5084635;28;20453;-82
2021/03/11 09:13:39;;;;;;;8.73;4.95;;;11.10;99.90;;;;;;5084124;28;20070;-80
2021/03/11 09:16:06;;;;;;;8.80;5.63;;;11.00;99.90;;;;;;5084472;28;20115;-80
2021/03/11 09:18:33;;;;;;;11.25;5.63;;;11.10;99.90;;;;;;5084412;28;20084;-80
2021/03/11 09:21:00;;;;;;;9.32;4.60;;;11.00;99.90;;;;;;5086638;28;20049;-80
2021/03/11 09:23:37;;;;;;;10.00;4.20;;;10.60;99.90;;;;;;5083234;28;20045;-79
2021/03/11 09:26:04;;;;;;;9.32;3.63;;;10.10;99.90;;;;;;5080656;28;20131;-80
2021/03/11 09:28:31;;;;;;;13.60;4.15;;;9.80;99.90;;;;;;5082067;28;20135;-81
2021/03/11 09:30:59;;;;;;;16.50;4.05;;;9.70;99.90;;;;;;5083686;28;20044;-81
2021/03/11 09:33:25;;;;;;;17.42;5.25;;;9.60;99.90;;;;;;5084858;28;20569;-81
2021/03/11 09:35:52;;;;;;;19.00;4.78;;;9.60;99.90;;;;;;5085315;28;20091;-81
2021/03/11 09:38:20;;;;;;;13.52;4.25;;;9.70;99.90;;;;;;5084991;28;20063;-81
2021/03/11 09:40:49;;;;;;;16.27;4.03;;;9.70;99.90;;;;;;5084136;28;20080;-82
2021/03/11 09:43:20;;;;;;;17.45;3.92;;;9.80;99.90;;;;;;5083693;28;20072;-81
2021/03/11 09:45:49;;;;;;;16.45;4.28;;;9.80;99.90;;;;;;5084011;28;20485;-82
2021/03/11 09:48:18;;;;;;;15.70;5.18;;;9.90;99.90;;;;;;5085651;28;20048;-81
2021/03/11 09:51:00;;;;;;;17.88;4.55;;;10.00;99.90;;;;;;5082553;28;20071;-81
2021/03/11 09:53:33;;;;;;;17.58;4.68;;;10.20;99.90;;;;;;5081041;28;20070;-80
2021/03/11 09:56:00;;;;;;;19.60;5.32;;;10.40;99.90;;;;;;5079331;28;20053;-80
2021/03/11 09:58:28;;;;;;;16.08;4.22;;;10.60;99.90;;;;;;5080517;28;20147;-81
2021/03/11 10:00:54;;;;;;;17.98;4.18;;;10.70;99.90;;;;;;5079765;28;20528;-81
2021/03/11 10:03:24;;;;;;;11.15;3.50;;;10.90;99.90;;;;;;5081133;28;20044;-81
2021/03/11 10:05:53;;;;;;;15.05;4.40;;;11.10;99.90;;;;;;5081283;28;20536;-80
2021/03/11 10:08:31;;;;;;;21.92;4.85;;;11.30;99.90;;;;;;5082262;28;20056;-81
2021/03/11 10:11:08;;;;;;;9.82;3.65;;;11.50;99.90;;;;;;5081432;28;20064;-79
2021/03/11 10:13:37;;;;;;;11.80;4.18;;;11.60;99.90;;;;;;5079533;28;20041;-80
2021/03/11 10:16:04;;;;;;;13.93;4.03;;;11.80;99.90;;;;;;5081484;28;20139;-80
2021/03/11 10:18:32;;;;;;;14.35;4.32;;;11.90;99.90;;;;;;5083844;28;20515;-80
2021/03/11 10:21:04;;;;;;;15.05;4.32;;;12.10;99.90;;;;;;5079996;28;20127;-81
2021/03/11 10:23:31;;;;;;;12.77;4.10;;;12.30;99.90;;;;;;5080427;28;20123;-80
2021/03/11 10:26:22;;;;;;;11.93;4.45;;;12.40;99.90;;;;;;5080479;28;20432;-80
2021/03/11 10:28:50;;;;;;;10.82;4.03;;;12.60;99.90;;;;;;5066114;28;20075;-79
2021/03/11 10:31:17;;;;;;;13.80;4.22;;;12.60;99.90;;;;;;5076330;28;20051;-81
2021/03/11 10:33:44;;;;;;;12.52;4.32;;;12.70;99.90;;;;;;5070888;28;20121;-80
2021/03/11 10:36:15;;;;;;;9.85;4.22;;;12.90;99.90;;;;;;5064003;28;20135;-80
2021/03/11 10:38:42;;;;;;;15.25;4.60;;;12.90;99.90;;;;;;5063257;28;20052;-79
2021/03/11 10:41:11;;;;;;;12.73;4.00;;;13.10;99.90;;;;;;5062896;28;20442;-81
2021/03/11 10:43:37;;;;;;;15.20;5.28;;;13.20;99.90;;;;;;5072996;28;20081;-81
2021/03/11 10:46:04;;;;;;;14.32;4.05;;;13.30;99.90;;;;;;5072343;28;20063;-80
2021/03/11 10:48:45;;;;;;;10.20;3.95;;;13.30;99.90;;;;;;5075201;22;20080;-80
2021/03/11 10:51:18;;;;;;;8.50;3.70;;;13.40;99.90;;;;;;5074655;28;20080;-79
2021/03/11 10:54:06;;;;;;;12.93;4.00;;;13.50;99.90;;;;;;5078850;28;20076;-81
2021/03/11 10:56:33;;;;;;;12.25;3.85;;;13.50;99.90;;;;;;5076203;28;20445;-81
2021/03/11 10:59:14;;;;;;;12.32;4.05;;;13.60;99.90;;;;;;5083098;28;20111;-80
2021/03/11 11:01:42;;;;;;;10.77;4.30;;;13.70;99.90;;;;;;5080274;28;20044;-81
2021/03/11 11:04:08;;;;;;;8.60;3.67;;;13.80;99.90;;;;;;5082573;28;20403;-79
2021/03/11 11:06:36;;;;;;;13.20;3.88;;;13.90;99.90;;;;;;5079410;28;20063;-80
2021/03/11 11:09:02;;;;;;;15.07;3.83;;;13.90;99.90;;;;;;5081176;28;20083;-80
2021/03/11 11:11:29;;;;;;;10.40;3.60;;;13.90;99.90;;;;;;5081613;28;20083;-81
2021/03/11 11:13:56;;;;;;;14.00;4.00;;;14.00;99.90;;;;;;5081240;28;20040;-81
2021/03/11 11:16:23;;;;;;;14.13;3.88;;;14.10;99.90;;;;;;5084233;28;20103;-81
2021/03/11 11:18:51;;;;;;;15.10;4.93;;;14.20;99.90;;;;;;5082709;28;20041;-82
2021/03/11 11:21:19;;;;;;;11.80;3.80;;;14.30;99.90;;;;;;5078249;28;20108;-80
2021/03/11 11:23:47;;;;;;;14.93;4.13;;;14.30;99.90;;;;;;5080042;28;20040;-81
2021/03/11 11:26:14;;;;;;;11.50;3.95;;;14.40;99.90;;;;;;5077925;28;20052;-80
2021/03/11 11:28:40;;;;;;;14.32;4.05;;;14.40;99.90;;;;;;5078020;28;20048;-81
2021/03/11 11:31:07;;;;;;;13.68;4.05;;;14.40;99.90;;;;;;5077990;28;20234;-80
2021/03/11 11:33:33;;;;;;;14.23;5.00;;;14.20;99.90;;;;;;5079343;28;20036;-81
2021/03/11 11:36:00;;;;;;;12.18;4.10;;;14.10;99.90;;;;;;5068989;28;20049;-80
2021/03/11 11:38:27;;;;;;;15.38;4.40;;;14.10;99.90;;;;;;5078195;28;20083;-80
2021/03/11 11:40:54;;;;;;;8.30;3.70;;;14.20;99.90;;;;;;5078609;28;20422;-80
2021/03/11 11:43:21;;;;;;;17.00;4.55;;;14.30;99.90;;;;;;5076168;28;20190;-80
2021/03/11 11:45:47;;;;;;;14.93;4.55;;;14.40;99.90;;;;;;5073763;28;20617;-79
2021/03/11 11:48:13;;;;;;;16.48;4.47;;;14.50;99.90;;;;;;5078112;28;20493;-80
2021/03/11 11:50:40;;;;;;;15.18;5.03;;;14.50;99.90;;;;;;5070492;28;20068;-80
2021/03/11 11:53:06;;;;;;;15.75;3.97;;;14.60;99.90;;;;;;5077373;28;20119;-79
2021/03/11 11:55:32;;;;;;;16.40;4.28;;;14.60;99.90;;;;;;5075961;28;20155;-79
2021/03/11 11:58:00;;;;;;;14.48;4.47;;;14.50;99.90;;;;;;5076120;28;20051;-79
2021/03/11 12:00:27;;;;;;;15.18;4.72;;;14.50;99.90;;;;;;5070020;28;20127;-79
2021/03/11 12:02:53;;;;;;;18.27;4.88;;;14.50;99.90;;;;;;5077064;28;20537;-78
2021/03/11 12:05:20;;;;;;;17.23;4.72;;;14.60;99.90;;;;;;5074711;28;20068;-80
2021/03/11 12:07:46;;;;;;;11.25;4.05;;;14.80;99.90;;;;;;5077538;28;20386;-81
2021/03/11 12:10:14;;;;;;;21.30;5.10;;;14.80;99.90;;;;;;5077849;28;20056;-80
2021/03/11 12:12:41;;;;;;;23.25;4.60;;;14.80;99.90;;;;;;5074096;28;20119;-80
2021/03/11 12:15:09;;;;;;;21.73;4.55;;;14.90;99.90;;;;;;5076670;28;20056;-79
2021/03/11 12:17:36;;;;;;;16.10;4.68;;;14.90;99.90;;;;;;5078351;28;20040;-80
2021/03/11 12:20:06;;;;;;;20.00;4.82;;;14.70;99.90;;;;;;5078468;28;20107;-81
2021/03/11 12:22:33;;;;;;;23.35;7.38;;;14.60;99.90;;;;;;5079752;28;20048;-81
2021/03/11 12:25:01;;;;;;;17.67;4.68;;;14.50;99.90;;;;;;5079079;28;20418;-80
2021/03/11 12:27:28;;;;;;;19.08;4.63;;;14.60;99.90;;;;;;5079829;28;20051;-82
2021/03/11 12:29:54;;;;;;;12.32;5.45;;;14.60;99.90;;;;;;5068630;28;20079;-80
2021/03/11 12:32:22;;;;;;;18.92;4.40;;;14.60;99.90;;;;;;5068113;28;20122;-80
2021/03/11 12:34:48;;;;;;;8.68;2.75;;;14.60;99.90;;;;;;5081212;28;20712;-79
2021/03/11 12:37:15;;;;;;;15.25;4.50;;;14.40;99.90;;;;;;5095124;28;20059;-79
2021/03/11 12:39:42;;;;;;;9.00;3.22;;;14.40;99.90;;;;;;5088646;28;20138;-81
2021/03/11 12:42:08;;;;;;;7.18;3.33;;;14.30;99.90;;;;;;5092675;28;20037;-81
2021/03/11 12:44:35;;;;;;;13.27;3.45;;;14.30;99.90;;;;;;5093345;28;20468;-81
2021/03/11 12:47:02;;;;;;;12.90;4.25;;;14.30;99.90;;;;;;5089603;28;20466;-80
2021/03/11 12:49:29;;;;;;;13.55;3.75;;;14.20;99.90;;;;;;5093946;28;20135;-82
2021/03/11 12:51:55;;;;;;;12.45;3.97;;;14.30;99.90;;;;;;5084731;28;20100;-81
2021/03/11 12:54:22;;;;;;;14.43;3.88;;;14.40;99.90;;;;;;5099193;28;20475;-80